createdAt,value
2022-10-13T00:00:42.614Z,8.54
2022-10-13T00:03:09.681Z,8.56
2022-10-13T00:05:40.802Z,8.55
2022-10-13T00:08:07.686Z,8.56
2022-10-13T00:10:36.808Z,8.59
2022-10-13T00:13:04.102Z,8.58
2022-10-13T00:15:30.966Z,8.63
2022-10-13T00:17:57.753Z,8.59
2022-10-13T00:20:24.623Z,8.58
2022-10-13T00:22:51.484Z,8.64
2022-10-13T00:25:18.343Z,8.67
2022-10-13T00:27:45.183Z,8.66
2022-10-13T00:30:12.086Z,8.68
2022-10-13T00:32:39.042Z,8.67
2022-10-13T00:35:06.022Z,8.65
2022-10-13T00:37:32.910Z,8.66
2022-10-13T00:39:59.842Z,8.69
2022-10-13T00:42:27.304Z,8.64
2022-10-13T00:45:12.583Z,8.70
2022-10-13T00:47:41.684Z,8.70
2022-10-13T00:50:11.302Z,8.71
2022-10-13T00:52:39.463Z,8.66
2022-10-13T00:55:07.042Z,8.70
2022-10-13T00:57:33.923Z,8.65
2022-10-13T01:00:00.804Z,8.70
2022-10-13T01:02:32.788Z,8.70
2022-10-13T01:04:59.644Z,8.66
2022-10-13T01:07:26.684Z,8.70
2022-10-13T01:09:53.522Z,8.70
2022-10-13T01:12:47.086Z,8.72
2022-10-13T01:15:26.223Z,8.70
2022-10-13T01:17:59.664Z,8.71
2022-10-13T01:20:38.642Z,8.72
2022-10-13T01:23:21.742Z,8.72
2022-10-13T01:26:25.862Z,8.71
2022-10-13T01:29:10.145Z,8.71
2022-10-13T01:31:42.727Z,8.71
2022-10-13T01:34:47.704Z,8.70
2022-10-13T01:37:29.365Z,8.71
2022-10-13T01:40:14.622Z,8.71
2022-10-13T01:42:47.261Z,8.70
2022-10-13T01:45:14.323Z,8.70
2022-10-13T01:47:41.246Z,8.59
2022-10-13T01:50:08.341Z,8.64
2022-10-13T01:52:37.284Z,8.69
2022-10-13T01:55:12.282Z,8.67
2022-10-13T01:57:41.827Z,8.69
2022-10-13T02:00:10.041Z,8.69
2022-10-13T02:02:58.563Z,8.67
2022-10-13T02:05:40.005Z,8.63
2022-10-13T02:08:33.182Z,8.65
2022-10-13T02:11:19.742Z,8.65
2022-10-13T02:14:16.982Z,8.63
2022-10-13T02:16:44.565Z,8.62
2022-10-13T02:19:13.382Z,8.61
2022-10-13T02:21:41.184Z,8.58
2022-10-13T02:24:08.580Z,8.55
2022-10-13T02:26:36.662Z,8.55
2022-10-13T02:29:10.773Z,8.48
2022-10-13T02:31:37.683Z,8.47
2022-10-13T02:34:05.044Z,8.48
2022-10-13T02:36:31.945Z,8.46
2022-10-13T02:38:59.105Z,8.46
2022-10-13T02:41:26.004Z,8.43
2022-10-13T02:43:52.822Z,8.39
2022-10-13T02:46:19.722Z,8.42
2022-10-13T02:48:46.564Z,8.38
2022-10-13T02:51:13.404Z,8.38
2022-10-13T02:53:40.221Z,8.41
2022-10-13T02:56:07.909Z,8.36
2022-10-13T02:58:35.421Z,8.38
2022-10-13T03:01:12.529Z,8.38
2022-10-13T03:03:39.702Z,8.38
2022-10-13T03:06:07.043Z,8.33
2022-10-13T03:08:34.306Z,8.38
2022-10-13T03:11:01.201Z,8.38
2022-10-13T03:13:28.022Z,8.34
2022-10-13T03:15:54.883Z,8.29
2022-10-13T03:18:21.688Z,8.36
2022-10-13T03:21:02.280Z,8.34
2022-10-13T03:23:29.142Z,8.38
2022-10-13T03:25:56.100Z,8.29
2022-10-13T03:28:23.114Z,8.37
2022-10-13T03:30:50.024Z,8.35
2022-10-13T03:33:17.003Z,8.26
2022-10-13T03:35:43.920Z,8.36
2022-10-13T03:38:10.762Z,8.33
2022-10-13T03:40:37.622Z,8.30
2022-10-13T03:43:04.381Z,8.28
2022-10-13T03:45:31.558Z,8.27
2022-10-13T03:47:58.625Z,8.35
2022-10-13T03:50:25.564Z,8.29
2022-10-13T03:52:52.385Z,8.31
2022-10-13T03:55:19.262Z,8.34
2022-10-13T03:57:46.103Z,8.35
2022-10-13T04:00:13.721Z,8.26
2022-10-13T04:02:40.644Z,8.35
2022-10-13T04:05:07.702Z,8.34
2022-10-13T04:07:34.923Z,8.31
2022-10-13T04:10:01.741Z,8.36
2022-10-13T04:12:28.563Z,8.38
2022-10-13T04:14:55.347Z,8.38
2022-10-13T04:17:22.121Z,8.37
2022-10-13T04:19:48.941Z,8.29
2022-10-13T04:22:15.761Z,8.33
2022-10-13T04:24:42.607Z,8.29
2022-10-13T04:27:10.204Z,8.33
2022-10-13T04:29:37.061Z,8.31
2022-10-13T04:32:04.003Z,8.35
2022-10-13T04:34:30.802Z,8.33
2022-10-13T04:36:57.702Z,8.33
2022-10-13T04:39:24.523Z,8.33
2022-10-13T04:41:51.344Z,8.31
2022-10-13T04:44:18.134Z,8.29
2022-10-13T04:46:44.984Z,8.25
2022-10-13T04:49:11.828Z,8.21
2022-10-13T04:51:38.664Z,8.17
2022-10-13T04:54:05.803Z,8.07
2022-10-13T04:56:32.702Z,8.09
2022-10-13T04:59:00.137Z,8.09
2022-10-13T05:01:27.088Z,8.07
2022-10-13T05:03:55.152Z,8.04
2022-10-13T05:06:33.201Z,8.00
2022-10-13T05:09:00.082Z,7.97
2022-10-13T05:11:27.361Z,7.96
2022-10-13T05:13:54.320Z,7.93
2022-10-13T05:16:21.301Z,7.87
2022-10-13T05:18:48.986Z,7.91
2022-10-13T05:21:17.742Z,7.89
2022-10-13T05:23:45.642Z,7.87
2022-10-13T05:26:14.224Z,7.82
2022-10-13T05:28:41.326Z,7.77
2022-10-13T05:31:18.943Z,7.70
2022-10-13T05:33:45.963Z,7.60
2022-10-13T05:36:20.245Z,7.53
2022-10-13T05:38:53.703Z,7.47
2022-10-13T05:41:20.823Z,7.44
2022-10-13T05:43:47.746Z,7.53
2022-10-13T05:46:14.804Z,7.52
2022-10-13T05:48:41.642Z,7.53
2022-10-13T05:51:16.147Z,7.52
2022-10-13T05:53:50.297Z,7.49
2022-10-13T05:56:22.304Z,7.58
2022-10-13T05:58:51.710Z,7.68
2022-10-13T06:01:20.380Z,7.59
2022-10-13T06:03:47.263Z,7.65
2022-10-13T06:06:14.125Z,7.68
2022-10-13T06:08:42.743Z,7.72
2022-10-13T06:11:09.902Z,7.68
2022-10-13T06:13:36.727Z,7.75
2022-10-13T06:16:04.064Z,7.69
2022-10-13T06:18:30.949Z,7.67
2022-10-13T06:20:57.769Z,7.73
2022-10-13T06:23:24.700Z,7.77
2022-10-13T06:25:52.481Z,7.94
2022-10-13T06:28:19.554Z,8.06
2022-10-13T06:30:49.583Z,8.26
2022-10-13T06:33:16.443Z,8.52
2022-10-13T06:35:43.245Z,8.75
2022-10-13T06:38:10.084Z,9.14
2022-10-13T06:40:36.962Z,9.44
2022-10-13T06:43:03.926Z,9.80
2022-10-13T06:45:30.862Z,10.20
2022-10-13T06:47:57.724Z,10.58
2022-10-13T06:50:24.702Z,10.94
2022-10-13T06:52:51.645Z,11.46
2022-10-13T06:55:18.644Z,11.90
2022-10-13T06:57:45.461Z,12.37
2022-10-13T07:00:12.604Z,12.88
2022-10-13T07:02:39.728Z,13.35
2022-10-13T07:05:06.928Z,13.85
2022-10-13T07:07:33.845Z,14.24
2022-10-13T07:10:00.834Z,14.79
2022-10-13T07:12:27.713Z,15.25
2022-10-13T07:14:54.735Z,15.70
2022-10-13T07:17:22.050Z,16.08
2022-10-13T07:19:49.397Z,16.53
2022-10-13T07:22:16.476Z,16.94
2022-10-13T07:24:43.628Z,17.34
2022-10-13T07:27:10.564Z,17.75
2022-10-13T07:29:37.633Z,18.07
2022-10-13T07:32:04.766Z,18.49
2022-10-13T07:34:31.778Z,18.92
2022-10-13T07:36:58.716Z,19.23
2022-10-13T07:39:25.695Z,19.58
2022-10-13T07:41:52.730Z,19.93
2022-10-13T07:44:19.834Z,20.19
2022-10-13T07:46:46.899Z,20.53
2022-10-13T07:49:16.182Z,20.80
2022-10-13T07:51:44.524Z,21.09
2022-10-13T07:54:11.553Z,21.40
2022-10-13T07:56:38.614Z,21.72
2022-10-13T07:59:05.576Z,21.88
2022-10-13T08:01:32.523Z,22.21
2022-10-13T08:03:59.507Z,22.39
2022-10-13T08:06:26.525Z,22.62
2022-10-13T08:08:53.589Z,22.88
2022-10-13T08:11:20.538Z,23.23
2022-10-13T08:13:51.003Z,23.48
2022-10-13T08:16:18.062Z,23.72
2022-10-13T08:18:45.525Z,24.04
2022-10-13T08:24:01.451Z,24.66
2022-10-13T08:26:28.413Z,24.95
2022-10-13T08:29:16.494Z,25.09
2022-10-13T08:31:42.887Z,25.01
2022-10-13T08:34:10.578Z,25.01
2022-10-13T08:36:38.137Z,24.95
2022-10-13T08:39:05.044Z,25.07
2022-10-13T08:41:33.653Z,25.32
2022-10-13T08:45:10.845Z,25.46
2022-10-13T08:47:03.428Z,25.77
2022-10-13T08:49:30.448Z,25.91
2022-10-13T08:51:58.996Z,26.08
2022-10-13T08:54:25.954Z,26.35
2022-10-13T08:56:53.108Z,26.66
2022-10-13T08:59:21.871Z,26.91
2022-10-13T09:01:51.945Z,27.24
2022-10-13T09:04:29.573Z,27.58
2022-10-13T09:07:04.069Z,27.69
2022-10-13T09:09:31.033Z,27.80
2022-10-13T09:11:58.276Z,27.86
2022-10-13T09:14:27.493Z,27.92
2022-10-13T09:16:55.156Z,28.03
2022-10-13T09:19:30.293Z,28.18
2022-10-13T09:22:28.212Z,28.37
2022-10-13T09:25:07.065Z,28.61
2022-10-13T09:27:49.174Z,28.68
2022-10-13T09:30:41.472Z,28.81
2022-10-13T09:33:14.251Z,28.87
2022-10-13T09:35:49.918Z,28.91
2022-10-13T09:38:19.993Z,28.97
2022-10-13T09:41:00.294Z,29.17
2022-10-13T09:43:29.868Z,29.30
2022-10-13T09:45:57.454Z,29.47
2022-10-13T09:48:27.751Z,29.48
2022-10-13T09:50:56.253Z,29.74
2022-10-13T09:53:40.135Z,29.83
2022-10-13T09:56:09.278Z,29.84
2022-10-13T09:59:02.512Z,29.99
2022-10-13T10:01:33.054Z,29.98
2022-10-13T10:04:00.266Z,29.78
2022-10-13T10:06:28.025Z,29.71
2022-10-13T10:09:04.897Z,29.64
2022-10-13T10:11:42.945Z,29.43
2022-10-13T10:14:34.620Z,29.49
2022-10-13T10:17:19.087Z,29.52
2022-10-13T10:20:10.954Z,29.71
2022-10-13T10:22:47.584Z,29.68
2022-10-13T10:25:14.427Z,29.62
2022-10-13T10:28:20.919Z,29.62
2022-10-13T10:31:25.130Z,29.52
2022-10-13T10:33:54.826Z,29.53
2022-10-13T10:36:38.575Z,29.41
2022-10-13T10:39:37.457Z,29.30
2022-10-13T10:42:30.781Z,29.16
2022-10-13T10:44:57.770Z,28.98
2022-10-13T10:47:29.871Z,28.70
2022-10-13T10:50:06.018Z,28.18
2022-10-13T10:53:13.260Z,28.42
2022-10-13T10:55:58.401Z,28.48
2022-10-13T10:58:45.706Z,28.81
2022-10-13T11:01:12.588Z,29.05
2022-10-13T11:03:39.427Z,29.06
2022-10-13T11:06:22.912Z,29.19
2022-10-13T11:08:49.868Z,29.32
2022-10-13T11:11:26.617Z,29.64
2022-10-13T11:14:07.178Z,29.84
2022-10-13T11:16:35.704Z,30.01
2022-10-13T11:19:08.864Z,30.06
2022-10-13T11:21:54.275Z,29.96
2022-10-13T11:24:42.585Z,29.91
2022-10-13T11:27:10.694Z,29.97
2022-10-13T11:29:57.310Z,29.94
2022-10-13T11:32:35.704Z,29.77
2022-10-13T11:35:05.511Z,29.20
2022-10-13T11:38:13.892Z,29.59
2022-10-13T11:41:14.786Z,29.78
2022-10-13T11:44:19.861Z,30.06
2022-10-13T11:47:08.423Z,29.99
2022-10-13T11:49:57.312Z,30.07
2022-10-13T11:52:40.571Z,29.82
2022-10-13T11:55:31.871Z,29.84
2022-10-13T11:58:16.187Z,29.94
2022-10-13T12:00:59.887Z,30.06
2022-10-13T12:03:34.606Z,30.13
2022-10-13T12:06:05.975Z,30.10
2022-10-13T12:08:36.307Z,30.15
2022-10-13T12:11:05.923Z,30.11
2022-10-13T12:13:33.286Z,30.19
2022-10-13T12:16:06.704Z,30.06
2022-10-13T12:18:36.108Z,30.03
2022-10-13T12:21:04.749Z,29.96
2022-10-13T12:23:32.468Z,29.75
2022-10-13T12:26:00.088Z,29.62
2022-10-13T12:28:29.281Z,29.27
2022-10-13T12:31:00.055Z,29.39
2022-10-13T12:33:31.907Z,28.75
2022-10-13T12:36:19.611Z,28.91
2022-10-13T12:38:49.385Z,29.08
2022-10-13T12:41:18.647Z,29.17
2022-10-13T12:43:45.823Z,29.29
2022-10-13T12:46:12.723Z,29.08
2022-10-13T12:48:40.429Z,28.94
2022-10-13T12:51:23.144Z,28.78
2022-10-13T12:53:50.082Z,28.49
2022-10-13T12:56:30.846Z,28.59
2022-10-13T12:58:57.765Z,28.28
2022-10-13T13:01:34.268Z,28.24
2022-10-13T13:04:22.901Z,28.17
2022-10-13T13:06:57.242Z,28.20
2022-10-13T13:09:31.071Z,28.04
2022-10-13T13:12:26.727Z,27.84
2022-10-13T13:14:55.343Z,27.66
2022-10-13T13:17:57.658Z,27.39
2022-10-13T13:20:34.795Z,27.02
2022-10-13T13:23:01.674Z,26.56
2022-10-13T13:25:28.613Z,26.07
2022-10-13T13:27:55.485Z,25.62
2022-10-13T13:30:23.432Z,25.04
2022-10-13T13:32:50.644Z,24.19
2022-10-13T13:35:17.673Z,23.56
2022-10-13T13:37:48.184Z,22.72
2022-10-13T13:40:19.846Z,21.78
2022-10-13T13:42:46.828Z,21.01
2022-10-13T13:45:14.508Z,20.30
2022-10-13T13:47:41.381Z,19.87
2022-10-13T13:50:35.078Z,19.28
2022-10-13T13:53:01.979Z,18.73
2022-10-13T13:55:29.882Z,18.15
2022-10-13T13:57:57.235Z,17.58
2022-10-13T14:00:24.697Z,17.10
2022-10-13T14:02:51.497Z,16.74
2022-10-13T14:05:18.441Z,16.43
2022-10-13T14:07:45.381Z,16.08
2022-10-13T14:10:12.262Z,15.83
2022-10-13T14:12:39.318Z,15.65
2022-10-13T14:15:06.701Z,15.46
2022-10-13T14:17:33.645Z,15.34
2022-10-13T14:20:00.649Z,15.18
2022-10-13T14:22:27.664Z,15.01
2022-10-13T14:24:54.679Z,14.86
2022-10-13T14:27:21.565Z,14.80
2022-10-13T14:29:48.602Z,14.66
2022-10-13T14:32:15.487Z,14.49
2022-10-13T14:34:42.382Z,14.39
2022-10-13T14:37:09.207Z,14.19
2022-10-13T14:39:36.060Z,14.07
2022-10-13T14:42:03.060Z,13.94
2022-10-13T14:44:29.923Z,13.80
2022-10-13T14:46:56.902Z,13.58
2022-10-13T14:49:23.717Z,13.52
2022-10-13T14:51:50.619Z,13.34
2022-10-13T14:54:17.497Z,13.24
2022-10-13T14:56:44.960Z,13.09
2022-10-13T14:59:12.345Z,12.99
2022-10-13T15:01:41.455Z,12.92
2022-10-13T15:04:08.500Z,12.84
2022-10-13T15:06:35.537Z,12.69
2022-10-13T15:09:02.440Z,12.70
2022-10-13T15:11:29.304Z,12.54
2022-10-13T15:13:56.661Z,12.58
2022-10-13T15:16:26.275Z,12.49
2022-10-13T15:18:53.115Z,12.33
2022-10-13T15:21:20.118Z,12.23
2022-10-13T15:23:47.103Z,12.07
2022-10-13T15:26:14.776Z,11.98
2022-10-13T15:28:46.038Z,11.94
2022-10-13T15:31:13.059Z,11.85
2022-10-13T15:33:45.580Z,11.77
2022-10-13T15:36:12.497Z,11.66
2022-10-13T15:38:39.417Z,11.63
2022-10-13T15:41:06.965Z,11.54
2022-10-13T15:43:34.421Z,11.54
2022-10-13T15:46:03.096Z,11.52
2022-10-13T15:48:30.091Z,11.42
2022-10-13T15:50:56.981Z,11.44
2022-10-13T15:53:23.915Z,11.44
2022-10-13T15:55:50.916Z,11.35
2022-10-13T15:58:17.836Z,11.35
2022-10-13T16:00:44.977Z,11.21
2022-10-13T16:03:14.477Z,11.27
2022-10-13T16:05:42.660Z,11.25
2022-10-13T16:08:09.538Z,11.22
2022-10-13T16:10:39.899Z,11.19
2022-10-13T16:13:07.080Z,11.16
2022-10-13T16:15:34.040Z,11.08
2022-10-13T16:18:00.878Z,11.07
2022-10-13T16:20:33.016Z,11.03
2022-10-13T16:22:59.899Z,11.03
2022-10-13T16:25:26.826Z,11.00
2022-10-13T16:27:53.635Z,10.93
2022-10-13T16:30:20.502Z,10.90
2022-10-13T16:32:47.380Z,10.86
2022-10-13T16:35:14.280Z,10.77
2022-10-13T16:37:41.259Z,10.77
2022-10-13T16:40:08.623Z,10.77
2022-10-13T16:42:35.500Z,10.66
2022-10-13T16:45:02.400Z,10.66
2022-10-13T16:47:29.258Z,10.68
2022-10-13T16:49:56.158Z,10.60
2022-10-13T16:52:23.040Z,10.54
2022-10-13T16:54:50.073Z,10.51
2022-10-13T16:57:16.877Z,10.49
2022-10-13T16:59:43.765Z,10.43
2022-10-13T17:02:15.841Z,10.32
2022-10-13T17:04:43.139Z,10.31
2022-10-13T17:07:10.040Z,10.20
2022-10-13T17:09:36.882Z,10.18
2022-10-13T17:12:04.484Z,10.00
2022-10-13T17:14:31.613Z,9.94
2022-10-13T17:16:58.465Z,9.86
2022-10-13T17:19:25.434Z,9.80
2022-10-13T17:21:52.266Z,9.68
2022-10-13T17:24:19.200Z,9.61
2022-10-13T17:26:46.093Z,9.52
2022-10-13T17:29:12.901Z,9.38
2022-10-13T17:31:39.716Z,9.38
2022-10-13T17:34:06.592Z,9.54
2022-10-13T17:36:34.546Z,9.62
2022-10-13T17:39:07.850Z,9.64
2022-10-13T17:41:34.816Z,9.73
2022-10-13T17:44:01.704Z,9.74
2022-10-13T17:46:38.956Z,9.78
2022-10-13T17:49:07.715Z,9.80
2022-10-13T17:51:34.535Z,9.82
2022-10-13T17:54:01.528Z,9.78
2022-10-13T17:56:28.618Z,9.77
2022-10-13T17:58:55.543Z,9.70
2022-10-13T18:01:27.566Z,9.63
2022-10-13T18:03:58.902Z,9.53
2022-10-13T18:06:27.559Z,9.47
2022-10-13T18:08:54.605Z,9.40
2022-10-13T18:11:22.282Z,9.32
2022-10-13T18:13:49.429Z,9.25
2022-10-13T18:16:18.285Z,9.15
2022-10-13T18:18:45.523Z,8.99
2022-10-13T18:21:14.059Z,8.87
2022-10-13T18:23:41.101Z,8.72
2022-10-13T18:26:15.020Z,8.60
2022-10-13T18:28:43.744Z,8.47
2022-10-13T18:31:12.302Z,8.38
2022-10-13T18:33:39.638Z,8.22
2022-10-13T18:36:24.061Z,8.11
2022-10-13T18:38:51.978Z,8.07
2022-10-13T18:41:19.102Z,8.01
2022-10-13T18:43:45.999Z,7.94
2022-10-13T18:46:12.863Z,7.79
2022-10-13T18:48:40.764Z,7.77
2022-10-13T18:51:12.346Z,7.68
2022-10-13T18:53:40.460Z,7.68
2022-10-13T18:56:09.063Z,7.56
2022-10-13T18:58:36.058Z,7.53
2022-10-13T19:01:04.285Z,7.46
2022-10-13T19:03:32.222Z,7.34
2022-10-13T19:05:59.085Z,7.34
2022-10-13T19:08:26.603Z,7.21
2022-10-13T19:10:53.520Z,7.16
2022-10-13T19:13:20.439Z,7.12
2022-10-13T19:15:47.322Z,6.96
2022-10-13T19:18:14.380Z,6.91
2022-10-13T19:20:41.344Z,6.89
2022-10-13T19:23:14.161Z,6.80
2022-10-13T19:25:44.240Z,6.73
2022-10-13T19:28:11.601Z,6.66
2022-10-13T19:30:38.904Z,6.55
2022-10-13T19:33:06.829Z,6.48
2022-10-13T19:35:42.595Z,6.45
2022-10-13T19:38:09.742Z,6.39
2022-10-13T19:40:41.503Z,6.34
2022-10-13T19:43:09.760Z,6.27
2022-10-13T19:45:36.892Z,6.23
2022-10-13T19:48:03.798Z,6.17
2022-10-13T19:50:33.398Z,6.09
2022-10-13T19:53:00.327Z,6.13
2022-10-13T19:55:27.128Z,6.09
2022-10-13T19:57:54.002Z,6.04
2022-10-13T20:00:20.800Z,5.96
2022-10-13T20:02:47.668Z,5.87
2022-10-13T20:05:14.585Z,5.85
2022-10-13T20:07:41.416Z,5.74
2022-10-13T20:10:08.483Z,5.72
2022-10-13T20:12:35.329Z,5.68
2022-10-13T20:15:02.215Z,5.63
2022-10-13T20:17:29.067Z,5.64
2022-10-13T20:19:55.964Z,5.59
2022-10-13T20:22:22.790Z,5.58
2022-10-13T20:24:49.948Z,5.50
2022-10-13T20:27:16.831Z,5.49
2022-10-13T20:29:43.641Z,5.50
2022-10-13T20:32:10.521Z,5.47
2022-10-13T20:34:37.430Z,5.45
2022-10-13T20:37:04.252Z,5.49
2022-10-13T20:39:31.146Z,5.44
2022-10-13T20:41:57.948Z,5.21
2022-10-13T20:44:24.809Z,5.29
2022-10-13T20:46:51.630Z,5.21
2022-10-13T20:49:18.512Z,5.23
2022-10-13T20:51:45.463Z,5.29
2022-10-13T20:54:13.061Z,5.27
2022-10-13T20:56:40.078Z,5.29
2022-10-13T20:59:08.446Z,5.32
2022-10-13T21:01:35.309Z,5.42
2022-10-13T21:04:02.121Z,5.41
2022-10-13T21:06:28.982Z,5.51
2022-10-13T21:08:55.848Z,5.61
2022-10-13T21:11:23.207Z,5.80
2022-10-13T21:13:50.208Z,5.87
2022-10-13T21:16:19.020Z,6.00
2022-10-13T21:18:48.221Z,6.06
2022-10-13T21:21:16.766Z,6.05
2022-10-13T21:23:43.837Z,6.09
2022-10-13T21:26:10.681Z,6.13
2022-10-13T21:28:38.241Z,6.12
2022-10-13T21:31:06.988Z,6.07
2022-10-13T21:33:35.727Z,5.91
2022-10-13T21:36:15.723Z,5.82
2022-10-13T21:38:44.576Z,5.91
2022-10-13T21:41:12.391Z,5.78
2022-10-13T21:43:39.188Z,5.70
2022-10-13T21:46:13.837Z,5.60
2022-10-13T21:48:40.783Z,5.68
2022-10-13T21:51:19.343Z,5.62
2022-10-13T21:53:53.578Z,5.44
2022-10-13T21:56:20.516Z,5.50
2022-10-13T21:58:49.023Z,5.47
2022-10-13T22:01:18.847Z,5.35
2022-10-13T22:03:47.208Z,5.41
2022-10-13T22:06:18.974Z,5.42
2022-10-13T22:08:47.922Z,5.35
2022-10-13T22:11:14.981Z,5.32
2022-10-13T22:13:41.767Z,5.38
2022-10-13T22:16:12.627Z,5.35
2022-10-13T22:18:39.429Z,5.32
2022-10-13T22:21:08.057Z,5.30
2022-10-13T22:23:34.875Z,5.34
2022-10-13T22:26:01.677Z,5.33
2022-10-13T22:28:31.258Z,5.31
2022-10-13T22:31:04.770Z,5.38
2022-10-13T22:33:31.941Z,5.43
2022-10-13T22:35:58.748Z,5.46
2022-10-13T22:38:25.579Z,5.52
2022-10-13T22:40:52.360Z,5.63
2022-10-13T22:43:19.262Z,5.74
2022-10-13T22:45:52.468Z,5.70
2022-10-13T22:48:19.306Z,5.76
2022-10-13T22:50:46.220Z,5.78
2022-10-13T22:53:12.996Z,5.70
2022-10-13T22:55:40.588Z,5.72
2022-10-13T22:58:07.640Z,5.77
2022-10-13T23:00:35.551Z,5.82
2022-10-13T23:03:02.719Z,5.82
2022-10-13T23:05:29.687Z,5.79
2022-10-13T23:07:56.496Z,5.89
2022-10-13T23:10:23.648Z,5.90
2022-10-13T23:12:50.447Z,5.87
2022-10-13T23:15:17.338Z,5.93
2022-10-13T23:17:44.215Z,6.01
2022-10-13T23:20:11.222Z,6.05
2022-10-13T23:22:37.998Z,6.09
2022-10-13T23:25:05.069Z,6.11
2022-10-13T23:27:31.868Z,6.16
2022-10-13T23:29:58.637Z,6.21
2022-10-13T23:32:25.491Z,6.22
2022-10-13T23:34:52.277Z,6.36
2022-10-13T23:37:19.546Z,6.44
2022-10-13T23:39:46.724Z,6.45
2022-10-13T23:42:13.548Z,6.40
2022-10-13T23:44:40.353Z,6.58
2022-10-13T23:47:07.173Z,6.59
2022-10-13T23:49:33.977Z,6.52
2022-10-13T23:52:00.737Z,6.53
2022-10-13T23:54:27.559Z,6.45
2022-10-13T23:56:54.395Z,6.46
2022-10-13T23:59:21.206Z,6.39
